createdAt,value
2019-04-11T00:01:02.260Z,18.27
2019-04-11T00:03:33.456Z,18.07
2019-04-11T00:06:03.689Z,15.72
2019-04-11T00:08:34.147Z,22.60
2019-04-11T00:11:05.919Z,15.45
2019-04-11T00:13:41.804Z,16.07
2019-04-11T00:16:13.110Z,16.32
2019-04-11T00:18:45.011Z,16.75
2019-04-11T00:21:16.987Z,17.77
2019-04-11T00:23:48.234Z,17.10
2019-04-11T00:26:18.440Z,19.87
2019-04-11T00:28:48.564Z,22.27
2019-04-11T00:31:19.617Z,19.60
2019-04-11T00:33:52.752Z,21.15
2019-04-11T00:36:25.868Z,19.00
2019-04-11T00:38:55.940Z,20.15
2019-04-11T00:41:26.059Z,17.35
2019-04-11T00:43:56.710Z,19.62
2019-04-11T00:46:26.808Z,20.20
2019-04-11T00:48:59.811Z,22.62
2019-04-11T00:51:29.917Z,17.37
2019-04-11T00:54:00.939Z,17.42
2019-04-11T00:56:31.029Z,18.05
2019-04-11T00:59:02.364Z,22.93
2019-04-11T01:01:33.710Z,18.20
2019-04-11T01:04:03.808Z,18.05
2019-04-11T01:06:34.904Z,16.37
2019-04-11T01:09:08.275Z,16.62
2019-04-11T01:11:40.387Z,17.85
2019-04-11T01:14:10.480Z,19.12
2019-04-11T01:16:43.025Z,16.30
2019-04-11T01:19:14.190Z,20.00
2019-04-11T01:21:45.507Z,24.85
2019-04-11T01:24:15.720Z,20.05
2019-04-11T01:26:45.776Z,24.82
2019-04-11T01:29:18.064Z,21.33
2019-04-11T01:31:49.836Z,19.10
2019-04-11T01:34:22.774Z,19.85
2019-04-11T01:36:53.812Z,18.85
2019-04-11T01:39:41.225Z,18.85
2019-04-11T01:42:13.219Z,21.30
2019-04-11T01:44:46.002Z,19.45
2019-04-11T01:47:21.282Z,18.75
2019-04-11T01:49:53.288Z,16.73
2019-04-11T01:52:24.465Z,18.75
2019-04-11T01:54:54.548Z,31.73
2019-04-11T01:57:40.256Z,20.80
2019-04-11T02:00:14.248Z,17.27
2019-04-11T02:02:54.835Z,21.52
2019-04-11T02:05:29.657Z,20.15
2019-04-11T02:08:00.825Z,20.12
2019-04-11T02:10:32.835Z,22.17
2019-04-11T02:13:03.980Z,17.82
2019-04-11T02:15:34.544Z,22.25
2019-04-11T02:18:05.431Z,18.52
2019-04-11T02:20:36.814Z,21.75
2019-04-11T02:23:24.992Z,19.48
2019-04-11T02:25:56.720Z,24.57
2019-04-11T02:28:26.844Z,23.35
2019-04-11T02:30:57.601Z,19.30
2019-04-11T02:33:27.794Z,21.77
2019-04-11T02:35:58.107Z,19.10
2019-04-11T02:38:30.505Z,18.60
2019-04-11T02:41:01.215Z,18.80
2019-04-11T02:43:31.988Z,20.65
2019-04-11T02:46:11.717Z,19.27
2019-04-11T02:48:36.126Z,24.00
2019-04-11T02:51:07.840Z,22.95
2019-04-11T02:53:45.085Z,21.80
2019-04-11T02:56:17.388Z,21.48
2019-04-11T02:58:48.356Z,22.05
2019-04-11T03:01:20.155Z,30.88
2019-04-11T03:03:51.984Z,22.93
2019-04-11T03:06:31.035Z,23.07
2019-04-11T03:09:02.483Z,21.93
2019-04-11T03:11:34.682Z,24.05
2019-04-11T03:14:07.634Z,19.95
2019-04-11T03:16:53.648Z,20.25
2019-04-11T03:19:28.532Z,17.75
2019-04-11T03:21:46.405Z,21.97
2019-04-11T03:24:17.685Z,22.42
2019-04-11T03:26:49.736Z,22.00
2019-04-11T03:29:20.388Z,28.23
2019-04-11T03:32:32.171Z,28.20
2019-04-11T03:35:12.165Z,21.05
2019-04-11T03:39:52.906Z,28.07
2019-04-11T03:42:16.921Z,21.33
2019-04-11T03:44:39.459Z,22.67
2019-04-11T03:47:18.195Z,23.60
2019-04-11T03:49:49.121Z,22.25
2019-04-11T03:52:12.751Z,28.55
2019-04-11T03:54:43.022Z,25.88
2019-04-11T03:57:13.530Z,24.98
2019-04-11T03:59:45.813Z,28.12
2019-04-11T04:02:22.516Z,27.20
2019-04-11T04:04:57.254Z,22.25
2019-04-11T04:07:27.787Z,26.65
2019-04-11T04:10:06.978Z,24.92
2019-04-11T04:12:37.815Z,19.90
2019-04-11T04:15:37.591Z,24.65
2019-04-11T04:17:55.198Z,21.95
2019-04-11T04:20:28.879Z,21.77
2019-04-11T04:23:05.165Z,22.62
2019-04-11T04:25:36.835Z,25.15
2019-04-11T04:28:10.129Z,25.30
2019-04-11T04:30:41.093Z,21.00
2019-04-11T04:33:14.555Z,23.73
2019-04-11T04:35:47.642Z,24.90
2019-04-11T04:38:24.197Z,24.57
2019-04-11T04:41:13.583Z,23.75
2019-04-11T04:43:31.693Z,31.55
2019-04-11T04:46:20.390Z,24.10
2019-04-11T04:48:34.718Z,20.10
2019-04-11T04:51:08.960Z,27.27
2019-04-11T04:53:36.539Z,28.32
2019-04-11T04:56:16.726Z,26.15
2019-04-11T04:58:48.562Z,26.48
2019-04-11T05:01:21.736Z,26.00
2019-04-11T05:03:58.819Z,24.82
2019-04-11T05:06:36.495Z,26.85
2019-04-11T05:09:08.601Z,26.60
2019-04-11T05:11:40.679Z,27.27
2019-04-11T05:14:12.432Z,26.15
2019-04-11T05:16:44.029Z,27.65
2019-04-11T05:19:14.974Z,27.20
2019-04-11T05:21:46.212Z,22.52
2019-04-11T05:24:16.678Z,21.90
2019-04-11T05:26:48.065Z,23.60
2019-04-11T05:29:19.548Z,26.33
2019-04-11T05:31:51.685Z,24.35
2019-04-11T05:34:23.901Z,27.80
2019-04-11T05:36:55.457Z,24.15
2019-04-11T05:39:27.678Z,20.17
2019-04-11T05:41:58.745Z,23.50
2019-04-11T05:44:29.145Z,28.60
2019-04-11T05:47:02.606Z,23.00
2019-04-11T05:49:37.305Z,23.10
2019-04-11T05:52:08.098Z,22.58
2019-04-11T05:54:48.996Z,27.90
2019-04-11T05:57:23.803Z,22.37
2019-04-11T05:59:56.570Z,27.70
2019-04-11T06:02:35.533Z,22.05
2019-04-11T06:05:09.033Z,21.42
2019-04-11T06:07:48.996Z,25.10
2019-04-11T06:10:28.355Z,22.35
2019-04-11T06:13:06.161Z,28.30
2019-04-11T06:15:49.700Z,28.80
2019-04-11T06:18:44.735Z,24.70
2019-04-11T06:21:20.217Z,21.85
2019-04-11T06:23:59.329Z,23.30
2019-04-11T06:26:45.604Z,26.95
2019-04-11T06:29:25.905Z,25.08
2019-04-11T06:31:52.300Z,26.15
2019-04-11T06:34:26.573Z,25.68
2019-04-11T06:37:01.448Z,30.55
2019-04-11T06:39:36.104Z,24.12
2019-04-11T06:42:10.936Z,22.20
2019-04-11T06:44:50.418Z,29.70
2019-04-11T06:47:38.997Z,23.70
2019-04-11T06:50:15.456Z,26.82
2019-04-11T06:52:46.836Z,23.95
2019-04-11T06:55:37.045Z,26.68
2019-04-11T06:58:21.471Z,23.47
2019-04-11T07:00:53.584Z,23.15
2019-04-11T07:03:27.632Z,23.70
2019-04-11T07:06:08.409Z,27.52
2019-04-11T07:09:01.591Z,20.27
2019-04-11T07:11:43.265Z,27.00
2019-04-11T07:14:29.161Z,21.57
2019-04-11T07:17:18.894Z,22.70
2019-04-11T07:20:05.186Z,24.15
2019-04-11T07:23:03.740Z,24.98
2019-04-11T07:25:39.548Z,21.40
2019-04-11T07:28:23.457Z,25.00
2019-04-11T07:31:08.189Z,27.42
2019-04-11T07:34:08.856Z,24.87
2019-04-11T07:36:48.272Z,27.07
2019-04-11T07:39:26.697Z,25.85
2019-04-11T07:42:18.265Z,24.45
2019-04-11T07:44:57.604Z,20.68
2019-04-11T07:47:46.050Z,21.12
2019-04-11T07:50:23.145Z,23.12
2019-04-11T07:53:03.117Z,23.80
2019-04-11T07:55:34.404Z,27.42
2019-04-11T07:58:17.720Z,21.52
2019-04-11T08:00:59.541Z,19.60
2019-04-11T08:03:40.081Z,24.45
2019-04-11T08:06:13.316Z,25.37
2019-04-11T08:08:51.418Z,23.75
2019-04-11T08:11:25.459Z,25.37
2019-04-11T08:14:18.206Z,22.37
2019-04-11T08:17:07.251Z,23.15
2019-04-11T08:19:44.819Z,22.02
2019-04-11T08:22:31.410Z,22.75
2019-04-11T08:25:15.382Z,23.83
2019-04-11T08:27:59.260Z,20.23
2019-04-11T08:30:25.257Z,22.10
2019-04-11T08:33:00.320Z,23.12
2019-04-11T08:35:33.157Z,23.52
2019-04-11T08:38:10.171Z,20.73
2019-04-11T08:40:58.884Z,21.23
2019-04-11T08:43:37.396Z,22.40
2019-04-11T08:46:10.932Z,21.77
2019-04-11T08:48:44.035Z,24.90
2019-04-11T08:51:19.561Z,24.20
2019-04-11T08:54:10.070Z,20.50
2019-04-11T08:56:43.159Z,23.33
2019-04-11T08:59:30.206Z,26.73
2019-04-11T09:02:00.470Z,20.83
2019-04-11T09:04:32.406Z,23.87
2019-04-11T09:07:03.280Z,19.50
2019-04-11T09:09:40.039Z,20.43
2019-04-11T09:12:14.854Z,22.23
2019-04-11T09:15:00.312Z,20.57
2019-04-11T09:17:32.961Z,22.43
2019-04-11T09:20:25.797Z,19.20
2019-04-11T09:22:57.549Z,20.70
2019-04-11T09:25:41.222Z,27.47
2019-04-11T09:28:15.597Z,22.43
2019-04-11T09:30:53.264Z,26.33
2019-04-11T09:33:41.450Z,23.40
2019-04-11T09:36:30.649Z,24.90
2019-04-11T09:39:06.622Z,21.20
2019-04-11T09:41:46.903Z,24.93
2019-04-11T09:44:18.629Z,20.53
2019-04-11T09:47:07.548Z,20.60
2019-04-11T09:49:40.254Z,22.97
2019-04-11T09:52:12.291Z,22.80
2019-04-11T09:54:54.954Z,24.03
2019-04-11T09:57:32.552Z,24.90
2019-04-11T10:00:16.454Z,22.87
2019-04-11T10:02:48.382Z,24.00
2019-04-11T10:05:22.238Z,22.30
2019-04-11T10:07:55.373Z,24.00
2019-04-11T10:10:33.203Z,22.67
2019-04-11T10:13:16.602Z,22.23
2019-04-11T10:16:04.962Z,21.07
2019-04-11T10:18:41.072Z,24.53
2019-04-11T10:21:15.198Z,23.13
2019-04-11T10:23:49.292Z,21.97
2019-04-11T10:26:20.373Z,21.77
2019-04-11T10:28:58.784Z,19.27
2019-04-11T10:31:30.643Z,22.57
2019-04-11T10:34:21.843Z,21.77
2019-04-11T10:36:53.756Z,23.80
2019-04-11T10:39:35.543Z,27.10
2019-04-11T10:42:10.616Z,23.33
2019-04-11T10:45:04.942Z,22.27
2019-04-11T10:47:38.734Z,23.33
2019-04-11T10:50:21.706Z,26.30
2019-04-11T10:52:55.114Z,24.27
2019-04-11T10:55:42.477Z,27.67
2019-04-11T10:58:20.789Z,27.47
2019-04-11T11:00:55.685Z,29.03
2019-04-11T11:03:29.061Z,22.50
2019-04-11T11:06:03.115Z,21.03
2019-04-11T11:08:37.648Z,23.07
2019-04-11T11:11:14.823Z,26.33
2019-04-11T11:14:02.545Z,24.93
2019-04-11T11:16:46.992Z,23.87
2019-04-11T11:19:45.691Z,27.30
2019-04-11T11:22:14.633Z,24.63
2019-04-11T11:24:52.451Z,23.43
2019-04-11T11:27:24.422Z,26.87
2019-04-11T11:30:13.359Z,27.50
2019-04-11T11:32:45.368Z,25.40
2019-04-11T11:35:17.177Z,25.43
2019-04-11T11:37:51.929Z,29.67
2019-04-11T11:40:25.917Z,25.07
2019-04-11T11:43:03.745Z,24.30
2019-04-11T11:45:47.915Z,24.70
2019-04-11T11:48:33.331Z,25.70
2019-04-11T11:51:05.488Z,25.30
2019-04-11T11:53:55.328Z,25.63
2019-04-11T11:56:26.337Z,24.20
2019-04-11T11:59:13.862Z,27.23
2019-04-11T12:01:50.935Z,26.10
2019-04-11T12:04:39.334Z,27.60
2019-04-11T12:07:16.785Z,24.93
2019-04-11T12:09:48.932Z,25.80
2019-04-11T12:12:23.865Z,25.50
2019-04-11T12:15:15.941Z,23.70
2019-04-11T12:17:55.969Z,25.60
2019-04-11T12:20:31.646Z,28.60
2019-04-11T12:23:04.641Z,26.90
2019-04-11T12:25:41.179Z,25.90
2019-04-11T12:28:15.644Z,27.83
2019-04-11T12:30:48.387Z,27.00
2019-04-11T12:33:35.365Z,27.23
2019-04-11T12:36:07.688Z,25.13
2019-04-11T12:38:55.973Z,26.20
2019-04-11T12:41:51.161Z,29.00
2019-04-11T12:44:26.716Z,26.50
2019-04-11T12:47:07.592Z,25.27
2019-04-11T12:49:37.588Z,24.53
2019-04-11T12:52:25.474Z,26.07
2019-04-11T12:55:04.148Z,27.23
2019-04-11T12:58:00.000Z,26.13
2019-04-11T13:00:47.590Z,25.53
2019-04-11T13:03:28.129Z,24.70
2019-04-11T13:06:22.482Z,31.67
2019-04-11T13:08:59.641Z,26.37
2019-04-11T13:11:31.430Z,26.07
2019-04-11T13:14:19.001Z,25.50
2019-04-11T13:17:10.265Z,25.17
2019-04-11T13:20:04.529Z,22.37
2019-04-11T13:22:35.785Z,21.47
2019-04-11T13:25:25.837Z,24.03
2019-04-11T13:27:57.564Z,22.60
2019-04-11T13:30:46.621Z,25.67
2019-04-11T13:33:19.281Z,25.70
2019-04-11T13:36:03.843Z,28.73
2019-04-11T13:38:36.505Z,23.80
2019-04-11T13:41:23.870Z,23.90
2019-04-11T13:43:55.354Z,21.80
2019-04-11T13:46:30.770Z,22.60
2019-04-11T13:49:05.175Z,23.03
2019-04-11T13:51:54.705Z,24.70
2019-04-11T13:54:40.624Z,27.97
2019-04-11T13:57:28.097Z,22.03
2019-04-11T14:00:15.806Z,25.03
2019-04-11T14:03:12.473Z,20.53
2019-04-11T14:05:50.609Z,21.03
2019-04-11T14:08:25.009Z,26.47
2019-04-11T14:11:02.386Z,20.63
2019-04-11T14:13:41.717Z,21.37
2019-04-11T14:16:20.161Z,24.80
2019-04-11T14:19:07.164Z,19.90
2019-04-11T14:21:37.381Z,21.37
2019-04-11T14:24:19.873Z,22.30
2019-04-11T14:27:01.285Z,20.03
2019-04-11T14:29:34.985Z,22.70
2019-04-11T14:32:16.177Z,22.93
2019-04-11T14:35:06.225Z,19.83
2019-04-11T14:37:38.848Z,21.30
2019-04-11T14:40:26.478Z,19.60
2019-04-11T14:43:17.934Z,19.37
2019-04-11T14:45:53.331Z,17.37
2019-04-11T14:48:30.883Z,18.60
2019-04-11T14:51:02.885Z,18.63
2019-04-11T14:53:50.799Z,19.40
2019-04-11T14:56:27.175Z,21.33
2019-04-11T14:59:13.529Z,19.23
2019-04-11T15:01:45.365Z,20.20
2019-04-11T15:04:25.906Z,18.80
2019-04-11T15:07:00.465Z,17.40
2019-04-11T15:09:39.105Z,21.60
2019-04-11T15:12:24.270Z,22.30
2019-04-11T15:14:57.013Z,20.03
2019-04-11T15:17:32.433Z,20.27
2019-04-11T15:20:14.505Z,17.23
2019-04-11T15:22:46.225Z,18.23
2019-04-11T15:25:23.741Z,17.07
2019-04-11T15:27:55.468Z,21.00
2019-04-11T15:30:38.209Z,20.73
2019-04-11T15:33:26.873Z,19.27
2019-04-11T15:36:00.526Z,19.53
2019-04-11T15:38:47.441Z,17.33
2019-04-11T15:41:17.593Z,17.90
2019-04-11T15:44:06.913Z,18.50
2019-04-11T15:46:38.812Z,17.80
2019-04-11T15:49:32.311Z,19.00
2019-04-11T15:52:06.245Z,18.00
2019-04-11T15:54:39.455Z,21.37
2019-04-11T15:57:12.813Z,19.93
2019-04-11T16:00:02.985Z,23.60
2019-04-11T16:02:48.145Z,18.00
2019-04-11T16:05:22.577Z,19.17
2019-04-11T16:08:10.204Z,29.23
2019-04-11T16:10:45.573Z,19.90
2019-04-11T16:13:33.409Z,20.13
2019-04-11T16:16:11.334Z,17.48
2019-04-11T16:18:56.310Z,20.77
2019-04-11T16:21:44.837Z,18.20
2019-04-11T16:24:17.537Z,20.07
2019-04-11T16:26:55.901Z,18.67
2019-04-11T16:29:29.557Z,16.50
2019-04-11T16:32:01.333Z,19.63
2019-04-11T16:34:48.248Z,17.27
2019-04-11T16:37:17.579Z,20.23
2019-04-11T16:39:54.828Z,25.35
2019-04-11T16:42:26.553Z,18.77
2019-04-11T16:45:17.225Z,20.60
2019-04-11T16:47:51.385Z,18.17
2019-04-11T16:50:21.477Z,29.95
2019-04-11T16:52:51.605Z,19.05
2019-04-11T16:55:22.637Z,19.67
2019-04-11T16:57:52.722Z,20.57
2019-04-11T17:00:27.607Z,23.27
2019-04-11T17:02:57.697Z,20.45
2019-04-11T17:05:27.811Z,19.75
2019-04-11T17:08:15.705Z,18.23
2019-04-11T17:10:57.517Z,20.15
2019-04-11T17:13:32.508Z,18.77
2019-04-11T17:16:14.448Z,19.67
2019-04-11T17:18:46.437Z,24.77
2019-04-11T17:21:18.521Z,19.77
2019-04-11T17:23:49.542Z,21.20
2019-04-11T17:26:22.978Z,24.45
2019-04-11T17:28:54.914Z,17.70
2019-04-11T17:31:25.987Z,20.02
2019-04-11T17:33:59.205Z,23.27
2019-04-11T17:36:30.714Z,19.25
2019-04-11T17:39:06.778Z,19.45
2019-04-11T17:41:36.415Z,19.40
2019-04-11T17:44:06.494Z,17.98
2019-04-11T17:46:41.041Z,24.18
2019-04-11T17:49:11.089Z,20.12
2019-04-11T17:51:55.743Z,23.55
2019-04-11T17:54:24.683Z,22.65
2019-04-11T17:56:58.728Z,17.10
2019-04-11T17:59:29.397Z,16.37
2019-04-11T18:01:59.489Z,19.60
2019-04-11T18:04:31.491Z,22.10
2019-04-11T18:07:02.533Z,24.85
2019-04-11T18:09:32.645Z,19.65
2019-04-11T18:12:03.706Z,25.80
2019-04-11T18:14:34.745Z,18.27
2019-04-11T18:17:06.014Z,19.20
2019-04-11T18:19:37.005Z,21.12
2019-04-11T18:22:13.546Z,17.67
2019-04-11T18:24:50.638Z,19.23
2019-04-11T18:27:27.561Z,26.33
2019-04-11T18:29:57.657Z,17.55
2019-04-11T18:32:29.861Z,27.48
2019-04-11T18:35:02.412Z,22.15
2019-04-11T18:37:33.457Z,17.00
2019-04-11T18:40:10.933Z,19.23
2019-04-11T18:42:41.025Z,18.65
2019-04-11T18:45:15.073Z,20.08
2019-04-11T18:47:46.257Z,23.32
2019-04-11T18:50:18.265Z,19.00
2019-04-11T18:52:50.415Z,17.32
2019-04-11T18:55:21.621Z,18.60
2019-04-11T18:57:51.747Z,22.93
2019-04-11T19:00:24.101Z,18.85
2019-04-11T19:02:59.944Z,19.92
2019-04-11T19:05:30.654Z,19.48
2019-04-11T19:08:01.759Z,20.05
2019-04-11T19:10:31.921Z,20.92
2019-04-11T19:13:02.041Z,17.42
2019-04-11T19:15:33.085Z,22.17
2019-04-11T19:18:06.792Z,22.27
2019-04-11T19:20:36.141Z,21.20
2019-04-11T19:23:08.057Z,22.87
2019-04-11T19:25:44.061Z,17.98
2019-04-11T19:28:10.429Z,22.75
2019-04-11T19:30:42.380Z,26.73
2019-04-11T19:33:13.228Z,24.65
2019-04-11T19:35:44.289Z,22.02
2019-04-11T19:38:22.802Z,22.85
2019-04-11T19:40:55.894Z,20.17
2019-04-11T19:43:27.937Z,25.62
2019-04-11T19:45:58.738Z,31.07
2019-04-11T19:48:28.901Z,20.27
2019-04-11T19:50:59.545Z,23.75
2019-04-11T19:53:32.779Z,22.10
2019-04-11T19:56:06.018Z,18.25
2019-04-11T19:58:47.182Z,18.82
2019-04-11T20:01:22.849Z,28.20
2019-04-11T20:03:56.966Z,18.70
2019-04-11T20:06:27.086Z,23.30
2019-04-11T20:08:58.115Z,21.50
2019-04-11T20:11:30.000Z,21.05
2019-04-11T20:14:07.720Z,21.55
2019-04-11T20:16:42.740Z,21.30
2019-04-11T20:19:10.818Z,18.60
2019-04-11T20:21:41.815Z,16.32
2019-04-11T20:24:14.419Z,16.60
2019-04-11T20:26:44.652Z,15.68
2019-04-11T20:29:15.194Z,21.57
2019-04-11T20:31:45.275Z,15.28
2019-04-11T20:34:27.363Z,16.30
2019-04-11T20:36:50.970Z,18.48
2019-04-11T20:39:21.061Z,32.50
2019-04-11T20:41:54.460Z,16.02
2019-04-11T20:44:33.218Z,16.93
2019-04-11T20:47:03.335Z,16.20
2019-04-11T20:49:36.974Z,17.32
2019-04-11T20:52:07.045Z,15.60
2019-04-11T20:54:38.488Z,15.18
2019-04-11T20:57:25.862Z,13.00
2019-04-11T20:59:55.790Z,14.58
2019-04-11T21:02:29.017Z,12.98
2019-04-11T21:05:00.934Z,10.50
2019-04-11T21:07:31.962Z,13.78
2019-04-11T21:10:04.155Z,10.32
2019-04-11T21:12:37.023Z,11.53
2019-04-11T21:15:09.850Z,13.30
2019-04-11T21:17:42.137Z,16.40
2019-04-11T21:20:12.486Z,11.55
2019-04-11T21:22:43.601Z,11.40
2019-04-11T21:25:28.573Z,11.22
2019-04-11T21:27:59.995Z,11.95
2019-04-11T21:30:37.203Z,13.58
2019-04-11T21:33:14.067Z,15.68
2019-04-11T21:35:44.159Z,12.43
2019-04-11T21:38:14.237Z,13.25
2019-04-11T21:40:45.271Z,12.55
2019-04-11T21:43:15.362Z,13.68
2019-04-11T21:45:45.533Z,12.07
2019-04-11T21:48:15.654Z,10.65
2019-04-11T21:50:47.759Z,11.53
2019-04-11T21:53:18.751Z,9.75
2019-04-11T21:55:50.843Z,10.50
2019-04-11T21:58:21.870Z,12.90
2019-04-11T22:01:02.264Z,10.18
2019-04-11T22:03:32.350Z,15.80
2019-04-11T22:06:02.418Z,11.30
2019-04-11T22:08:34.468Z,9.65
2019-04-11T22:11:12.181Z,10.00
2019-04-11T22:13:42.273Z,14.30
2019-04-11T22:16:14.265Z,13.62
2019-04-11T22:18:44.490Z,9.00
2019-04-11T22:21:15.557Z,15.85
2019-04-11T22:23:49.183Z,8.08
2019-04-11T22:26:22.341Z,11.78
2019-04-11T22:28:59.109Z,15.08
2019-04-11T22:31:30.215Z,10.25
2019-04-11T22:34:04.606Z,11.55
2019-04-11T22:36:34.687Z,12.35
2019-04-11T22:39:09.354Z,11.55
2019-04-11T22:41:43.090Z,8.85
2019-04-11T22:44:15.121Z,9.55
2019-04-11T22:46:45.213Z,11.48
2019-04-11T22:49:15.284Z,11.43
2019-04-11T22:51:56.397Z,9.03
2019-04-11T22:54:27.444Z,9.85
2019-04-11T22:56:58.497Z,12.45
2019-04-11T22:59:31.650Z,19.07
2019-04-11T23:02:10.405Z,9.38
2019-04-11T23:04:42.493Z,9.98
2019-04-11T23:07:15.058Z,10.90
2019-04-11T23:09:48.590Z,13.78
2019-04-11T23:12:21.114Z,10.03
2019-04-11T23:14:53.214Z,10.45
2019-04-11T23:17:24.213Z,11.18
2019-04-11T23:19:54.490Z,9.13
2019-04-11T23:22:24.537Z,11.48
2019-04-11T23:24:55.601Z,11.33
2019-04-11T23:27:27.696Z,10.35
2019-04-11T23:29:57.805Z,9.40
2019-04-11T23:32:33.649Z,11.35
2019-04-11T23:35:05.470Z,8.68
2019-04-11T23:37:51.179Z,10.82
2019-04-11T23:40:23.934Z,9.15
2019-04-11T23:42:55.017Z,12.50
2019-04-11T23:45:26.979Z,10.28
2019-04-11T23:47:58.001Z,12.43
2019-04-11T23:50:28.079Z,9.30
2019-04-11T23:53:07.601Z,10.08
2019-04-11T23:55:37.693Z,10.75
2019-04-11T23:58:15.470Z,11.15
